createdAt,value
2018-10-18T00:00:24.377Z,51.70
2018-10-18T00:00:59.793Z,52.90
2018-10-18T00:01:35.128Z,53.10
2018-10-18T00:02:10.882Z,53.30
2018-10-18T00:02:46.188Z,50.00
2018-10-18T00:03:21.767Z,51.80
2018-10-18T00:03:57.353Z,51.40
2018-10-18T00:04:32.668Z,54.30
2018-10-18T00:05:07.768Z,53.60
2018-10-18T00:05:43.012Z,51.00
2018-10-18T00:06:18.519Z,51.50
2018-10-18T00:06:53.931Z,52.20
2018-10-18T00:07:29.165Z,50.20
2018-10-18T00:08:04.207Z,49.00
2018-10-18T00:08:39.715Z,48.70
2018-10-18T00:09:15.249Z,51.50
2018-10-18T00:09:50.536Z,50.80
2018-10-18T00:10:25.930Z,50.30
2018-10-18T00:11:01.555Z,49.90
2018-10-18T00:11:36.890Z,49.40
2018-10-18T00:12:12.255Z,49.50
2018-10-18T00:12:47.860Z,49.60
2018-10-18T00:13:23.101Z,50.40
2018-10-18T00:13:58.361Z,52.70
2018-10-18T00:14:33.933Z,52.90
2018-10-18T00:15:09.135Z,52.10
2018-10-18T00:15:44.364Z,51.50
2018-10-18T00:16:19.646Z,52.60
2018-10-18T00:16:54.968Z,50.70
2018-10-18T00:17:30.181Z,50.40
2018-10-18T00:18:05.561Z,51.80
2018-10-18T00:18:40.839Z,53.20
2018-10-18T00:19:16.147Z,51.40
2018-10-18T00:19:51.471Z,50.60
2018-10-18T00:20:26.881Z,52.50
2018-10-18T00:21:02.274Z,52.90
2018-10-18T00:21:38.020Z,51.30
2018-10-18T00:22:13.712Z,52.50
2018-10-18T00:22:49.269Z,52.60
2018-10-18T00:23:24.823Z,51.50
2018-10-18T00:24:00.008Z,50.10
2018-10-18T00:24:35.095Z,49.20
2018-10-18T00:25:10.424Z,51.30
2018-10-18T00:25:45.938Z,52.90
2018-10-18T00:26:21.142Z,52.30
2018-10-18T00:26:56.348Z,52.30
2018-10-18T00:27:31.702Z,52.40
2018-10-18T00:28:07.127Z,50.80
2018-10-18T00:28:42.222Z,49.90
2018-10-18T00:29:17.581Z,50.70
2018-10-18T00:29:52.802Z,51.40
2018-10-18T00:30:28.121Z,49.70
2018-10-18T00:31:03.585Z,49.10
2018-10-18T00:31:38.782Z,49.20
2018-10-18T00:32:14.160Z,51.20
2018-10-18T00:32:49.648Z,51.40
2018-10-18T00:33:24.994Z,52.60
2018-10-18T00:34:00.129Z,52.60
2018-10-18T00:34:35.433Z,52.30
2018-10-18T00:35:10.685Z,50.60
2018-10-18T00:35:46.321Z,51.80
2018-10-18T00:36:21.615Z,52.90
2018-10-18T00:36:57.152Z,52.20
2018-10-18T00:37:32.441Z,53.20
2018-10-18T00:38:08.021Z,51.60
2018-10-18T00:38:43.340Z,51.60
2018-10-18T00:39:18.776Z,51.80
2018-10-18T00:39:54.204Z,51.60
2018-10-18T00:40:29.432Z,52.00
2018-10-18T00:41:04.942Z,52.70
2018-10-18T00:41:40.171Z,52.80
2018-10-18T00:42:15.845Z,52.00
2018-10-18T00:42:51.343Z,51.90
2018-10-18T00:43:26.573Z,52.00
2018-10-18T00:44:02.016Z,51.70
2018-10-18T00:44:37.340Z,51.50
2018-10-18T00:45:12.681Z,49.60
2018-10-18T00:45:48.135Z,48.80
2018-10-18T00:46:23.580Z,49.60
2018-10-18T00:46:58.935Z,50.90
2018-10-18T00:47:34.309Z,49.30
2018-10-18T00:48:09.716Z,46.90
2018-10-18T00:48:44.923Z,46.70
2018-10-18T00:49:20.544Z,47.20
2018-10-18T00:49:55.932Z,46.30
2018-10-18T00:50:31.285Z,44.40
2018-10-18T00:51:06.539Z,45.20
2018-10-18T00:51:42.022Z,47.30
2018-10-18T00:52:17.436Z,45.80
2018-10-18T00:52:53.087Z,45.20
2018-10-18T00:53:28.331Z,45.90
2018-10-18T00:54:03.822Z,45.00
2018-10-18T00:54:39.330Z,45.70
2018-10-18T00:55:14.883Z,46.70
2018-10-18T00:55:50.336Z,46.70
2018-10-18T00:56:25.752Z,46.10
2018-10-18T00:57:01.001Z,45.00
2018-10-18T00:57:36.529Z,43.60
2018-10-18T00:58:11.898Z,44.30
2018-10-18T00:58:47.078Z,45.00
2018-10-18T00:59:22.502Z,45.30
2018-10-18T00:59:58.082Z,44.40
2018-10-18T01:00:33.576Z,43.20
2018-10-18T01:01:08.795Z,43.80
2018-10-18T01:01:44.236Z,44.50
2018-10-18T01:02:19.399Z,44.10
2018-10-18T01:02:54.726Z,43.50
2018-10-18T01:03:29.973Z,43.20
2018-10-18T01:04:05.412Z,43.10
2018-10-18T01:04:40.925Z,42.10
2018-10-18T01:05:16.148Z,43.10
2018-10-18T01:05:51.472Z,45.60
2018-10-18T01:06:26.664Z,44.50
2018-10-18T01:07:01.807Z,43.10
2018-10-18T01:07:37.040Z,43.50
2018-10-18T01:08:12.419Z,45.10
2018-10-18T01:08:47.746Z,43.60
2018-10-18T01:09:22.752Z,42.40
2018-10-18T01:09:57.803Z,40.70
2018-10-18T01:10:33.304Z,40.10
2018-10-18T01:11:08.732Z,41.50
2018-10-18T01:11:44.005Z,43.00
2018-10-18T01:12:19.348Z,43.30
2018-10-18T01:12:54.427Z,42.40
2018-10-18T01:13:30.149Z,41.40
2018-10-18T01:14:05.621Z,40.80
2018-10-18T01:14:41.081Z,42.50
2018-10-18T01:15:16.463Z,43.90
2018-10-18T01:15:51.823Z,43.50
2018-10-18T01:16:27.156Z,43.30
2018-10-18T01:17:02.492Z,43.60
2018-10-18T01:17:38.402Z,41.50
2018-10-18T01:18:14.153Z,41.40
2018-10-18T01:18:49.487Z,42.00
2018-10-18T01:19:24.576Z,43.00
2018-10-18T01:19:59.842Z,39.20
2018-10-18T01:20:35.273Z,39.20
2018-10-18T01:21:10.685Z,40.40
2018-10-18T01:21:46.015Z,40.40
2018-10-18T01:22:21.577Z,42.90
2018-10-18T01:22:57.009Z,42.70
2018-10-18T01:23:32.313Z,41.00
2018-10-18T01:24:07.853Z,40.10
2018-10-18T01:24:42.760Z,40.80
2018-10-18T01:25:17.991Z,42.30
2018-10-18T01:25:53.290Z,41.70
2018-10-18T01:26:28.589Z,41.00
2018-10-18T01:27:04.133Z,42.70
2018-10-18T01:27:39.335Z,42.00
2018-10-18T01:28:14.677Z,39.70
2018-10-18T01:28:50.153Z,38.60
2018-10-18T01:29:25.501Z,39.50
2018-10-18T01:30:01.067Z,39.10
2018-10-18T01:30:36.421Z,39.70
2018-10-18T01:31:11.699Z,41.60
2018-10-18T01:31:47.137Z,41.40
2018-10-18T01:32:22.563Z,40.40
2018-10-18T01:32:58.027Z,39.00
2018-10-18T01:33:33.533Z,38.20
2018-10-18T01:34:09.211Z,38.00
2018-10-18T01:34:44.559Z,40.20
2018-10-18T01:35:19.791Z,41.20
2018-10-18T01:35:55.205Z,40.50
2018-10-18T01:36:30.596Z,38.80
2018-10-18T01:37:05.903Z,37.60
2018-10-18T01:37:41.203Z,37.70
2018-10-18T01:38:16.897Z,36.00
2018-10-18T01:38:52.093Z,38.00
2018-10-18T01:39:27.746Z,39.20
2018-10-18T01:40:03.171Z,38.40
2018-10-18T01:40:38.489Z,37.40
2018-10-18T01:41:15.731Z,38.10
2018-10-18T01:41:51.019Z,39.00
2018-10-18T01:42:26.492Z,37.60
2018-10-18T01:43:01.746Z,38.50
2018-10-18T01:43:36.846Z,39.00
2018-10-18T01:44:12.331Z,38.80
2018-10-18T01:44:47.614Z,36.50
2018-10-18T01:45:22.926Z,35.90
2018-10-18T01:45:58.070Z,36.40
2018-10-18T01:46:33.653Z,40.50
2018-10-18T01:47:09.080Z,39.40
2018-10-18T01:47:44.612Z,38.00
2018-10-18T01:48:20.119Z,37.70
2018-10-18T01:48:55.835Z,39.00
2018-10-18T01:49:31.054Z,38.00
2018-10-18T01:50:06.692Z,40.00
2018-10-18T01:50:42.272Z,40.10
2018-10-18T01:51:17.809Z,38.70
2018-10-18T01:51:53.019Z,37.70
2018-10-18T01:52:28.446Z,36.40
2018-10-18T01:53:04.098Z,36.80
2018-10-18T01:53:39.528Z,36.10
2018-10-18T01:54:14.667Z,36.70
2018-10-18T01:54:50.059Z,37.90
2018-10-18T01:55:25.277Z,35.80
2018-10-18T01:56:00.641Z,36.60
2018-10-18T01:56:35.895Z,37.40
2018-10-18T01:57:11.220Z,35.20
2018-10-18T01:57:46.232Z,36.40
2018-10-18T01:58:21.855Z,36.70
2018-10-18T01:58:57.206Z,37.00
2018-10-18T01:59:32.536Z,35.10
2018-10-18T02:00:08.161Z,33.80
2018-10-18T02:00:43.223Z,35.00
2018-10-18T02:01:18.770Z,35.30
2018-10-18T02:01:54.366Z,33.70
2018-10-18T02:02:29.918Z,34.30
2018-10-18T02:03:05.451Z,34.70
2018-10-18T02:03:40.894Z,34.10
2018-10-18T02:04:16.267Z,33.80
2018-10-18T02:04:51.875Z,35.30
2018-10-18T02:05:27.386Z,36.20
2018-10-18T02:06:02.960Z,34.20
2018-10-18T02:06:38.157Z,35.00
2018-10-18T02:07:13.460Z,35.70
2018-10-18T02:07:48.871Z,35.40
2018-10-18T02:08:24.594Z,33.90
2018-10-18T02:08:59.822Z,33.90
2018-10-18T02:09:35.371Z,34.10
2018-10-18T02:10:10.538Z,33.70
2018-10-18T02:10:46.035Z,33.60
2018-10-18T02:11:21.031Z,31.80
2018-10-18T02:11:56.509Z,31.60
2018-10-18T02:12:31.714Z,33.80
2018-10-18T02:13:07.323Z,32.50
2018-10-18T02:13:42.464Z,32.70
2018-10-18T02:14:17.881Z,33.10
2018-10-18T02:14:53.390Z,33.10
2018-10-18T02:15:28.842Z,32.10
2018-10-18T02:16:04.163Z,32.60
2018-10-18T02:16:39.548Z,31.20
2018-10-18T02:17:14.925Z,32.10
2018-10-18T02:17:50.256Z,32.50
2018-10-18T02:18:25.654Z,32.80
2018-10-18T02:19:00.978Z,33.20
2018-10-18T02:19:36.073Z,33.10
2018-10-18T02:20:11.286Z,33.10
2018-10-18T02:20:46.615Z,32.60
2018-10-18T02:21:22.023Z,32.50
2018-10-18T02:21:57.664Z,33.80
2018-10-18T02:22:32.952Z,31.60
2018-10-18T02:23:08.299Z,31.30
2018-10-18T02:23:43.604Z,29.40
2018-10-18T02:24:18.754Z,28.40
2018-10-18T02:24:54.568Z,31.00
2018-10-18T02:25:29.819Z,30.60
2018-10-18T02:26:05.037Z,30.20
2018-10-18T02:26:40.326Z,30.40
2018-10-18T02:27:15.740Z,31.30
2018-10-18T02:27:51.149Z,29.80
2018-10-18T02:28:26.500Z,29.70
2018-10-18T02:29:01.886Z,30.50
2018-10-18T02:29:37.145Z,32.20
2018-10-18T02:30:12.448Z,32.70
2018-10-18T02:30:47.798Z,32.10
2018-10-18T02:31:23.251Z,32.10
2018-10-18T02:31:58.356Z,31.10
2018-10-18T02:32:33.527Z,29.70
2018-10-18T02:33:08.859Z,29.40
2018-10-18T02:33:44.355Z,29.70
2018-10-18T02:34:19.850Z,28.90
2018-10-18T02:34:55.197Z,29.70
2018-10-18T02:35:30.728Z,30.70
2018-10-18T02:36:06.066Z,31.10
2018-10-18T02:36:41.346Z,30.30
2018-10-18T02:37:16.561Z,30.20
2018-10-18T02:37:51.955Z,31.00
2018-10-18T02:38:27.305Z,31.30
2018-10-18T02:39:02.620Z,29.40
2018-10-18T02:39:38.081Z,29.20
2018-10-18T02:40:13.596Z,29.60
2018-10-18T02:40:49.131Z,29.90
2018-10-18T02:41:24.652Z,30.00
2018-10-18T02:41:59.863Z,29.90
2018-10-18T02:42:35.164Z,29.90
2018-10-18T02:43:10.795Z,30.00
2018-10-18T02:43:46.177Z,27.70
2018-10-18T02:44:21.804Z,28.50
2018-10-18T02:44:57.034Z,29.20
2018-10-18T02:45:32.383Z,28.80
2018-10-18T02:46:07.919Z,28.60
2018-10-18T02:46:43.382Z,28.10
2018-10-18T02:47:18.917Z,30.10
2018-10-18T02:47:54.320Z,28.90
2018-10-18T02:48:29.563Z,28.10
2018-10-18T02:49:04.784Z,29.80
2018-10-18T02:49:39.988Z,29.80
2018-10-18T02:50:15.347Z,29.10
2018-10-18T02:50:50.544Z,30.00
2018-10-18T02:51:25.869Z,29.70
2018-10-18T02:52:01.079Z,29.70
2018-10-18T02:52:36.532Z,30.70
2018-10-18T02:53:12.462Z,30.90
2018-10-18T02:53:47.598Z,28.80
2018-10-18T02:54:22.917Z,27.50
2018-10-18T02:54:58.572Z,28.60
2018-10-18T02:55:33.833Z,29.50
2018-10-18T02:56:09.086Z,30.10
2018-10-18T02:56:44.306Z,28.90
2018-10-18T02:57:19.635Z,30.10
2018-10-18T02:57:55.077Z,30.40
2018-10-18T02:58:30.312Z,30.00
2018-10-18T02:59:05.820Z,30.10
2018-10-18T02:59:41.277Z,30.50
2018-10-18T03:00:16.357Z,29.80
2018-10-18T03:00:51.744Z,29.90
2018-10-18T03:01:26.876Z,30.00
2018-10-18T03:02:02.294Z,30.30
2018-10-18T03:02:37.608Z,29.40
2018-10-18T03:03:13.038Z,30.40
2018-10-18T03:03:48.411Z,29.70
2018-10-18T03:04:23.889Z,30.00
2018-10-18T03:04:59.219Z,28.10
2018-10-18T03:05:34.467Z,27.60
2018-10-18T03:06:09.894Z,28.10
2018-10-18T03:06:45.513Z,28.80
2018-10-18T03:07:21.060Z,29.30
2018-10-18T03:07:56.379Z,29.90
2018-10-18T03:08:31.717Z,29.00
2018-10-18T03:09:06.905Z,28.20
2018-10-18T03:09:42.246Z,29.20
2018-10-18T03:10:17.494Z,30.20
2018-10-18T03:10:52.698Z,29.20
2018-10-18T03:11:28.239Z,28.80
2018-10-18T03:12:03.695Z,28.40
2018-10-18T03:12:39.014Z,29.00
2018-10-18T03:13:14.272Z,28.90
2018-10-18T03:13:49.577Z,29.80
2018-10-18T03:14:24.812Z,30.10
2018-10-18T03:15:00.115Z,30.20
2018-10-18T03:15:35.867Z,27.80
2018-10-18T03:16:11.413Z,26.40
2018-10-18T03:16:46.917Z,27.50
2018-10-18T03:17:22.263Z,28.10
2018-10-18T03:17:57.679Z,27.90
2018-10-18T03:18:33.018Z,27.70
2018-10-18T03:19:08.141Z,28.80
2018-10-18T03:19:44.867Z,27.90
2018-10-18T03:20:20.157Z,26.50
2018-10-18T03:20:55.359Z,27.70
2018-10-18T03:21:30.598Z,27.10
2018-10-18T03:22:05.920Z,27.20
2018-10-18T03:22:41.303Z,27.30
2018-10-18T03:23:16.842Z,27.70
2018-10-18T03:23:52.164Z,28.10
2018-10-18T03:24:27.756Z,27.30
2018-10-18T03:25:03.134Z,26.40
2018-10-18T03:25:38.486Z,26.00
2018-10-18T03:26:14.178Z,26.30
2018-10-18T03:26:49.499Z,27.20
2018-10-18T03:27:25.040Z,29.30
2018-10-18T03:28:00.630Z,28.20
2018-10-18T03:28:35.974Z,28.90
2018-10-18T03:29:11.406Z,29.20
2018-10-18T03:29:46.665Z,28.00
2018-10-18T03:30:22.277Z,28.40
2018-10-18T03:30:57.609Z,26.30
2018-10-18T03:31:32.892Z,26.00
2018-10-18T03:32:08.129Z,27.90
2018-10-18T03:32:43.438Z,27.80
2018-10-18T03:33:18.751Z,26.40
2018-10-18T03:33:54.457Z,28.00
2018-10-18T03:34:29.787Z,30.40
2018-10-18T03:35:05.064Z,28.20
2018-10-18T03:35:40.437Z,27.50
2018-10-18T03:36:15.775Z,28.10
2018-10-18T03:36:51.232Z,28.60
2018-10-18T03:37:26.367Z,28.60
2018-10-18T03:38:01.722Z,27.50
2018-10-18T03:38:36.942Z,27.90
2018-10-18T03:39:12.604Z,28.60
2018-10-18T03:39:47.894Z,30.10
2018-10-18T03:40:23.783Z,30.10
2018-10-18T03:40:59.098Z,28.60
2018-10-18T03:41:34.747Z,29.00
2018-10-18T03:42:10.185Z,29.30
2018-10-18T03:42:45.420Z,28.60
2018-10-18T03:43:20.593Z,28.20
2018-10-18T03:43:55.919Z,26.90
2018-10-18T03:44:31.430Z,27.60
2018-10-18T03:45:06.661Z,28.70
2018-10-18T03:45:42.219Z,28.60
2018-10-18T03:46:17.461Z,28.80
2018-10-18T03:46:52.705Z,29.00
2018-10-18T03:47:28.240Z,29.50
2018-10-18T03:48:03.727Z,28.20
2018-10-18T03:48:39.165Z,28.30
2018-10-18T03:49:14.847Z,29.10
2018-10-18T03:49:50.451Z,29.80
2018-10-18T03:50:25.886Z,29.10
2018-10-18T03:51:01.551Z,29.80
2018-10-18T03:51:36.963Z,28.60
2018-10-18T03:52:12.396Z,28.80
2018-10-18T03:52:47.684Z,30.00
2018-10-18T03:53:23.021Z,29.60
2018-10-18T03:53:58.546Z,28.10
2018-10-18T03:54:33.662Z,27.40
2018-10-18T03:55:09.056Z,26.40
2018-10-18T03:55:44.605Z,28.70
2018-10-18T03:56:19.859Z,29.30
2018-10-18T03:56:55.222Z,27.20
2018-10-18T03:57:30.620Z,28.00
2018-10-18T03:58:06.158Z,28.20
2018-10-18T03:58:41.267Z,26.70
2018-10-18T03:59:16.900Z,26.80
2018-10-18T03:59:52.455Z,26.80
2018-10-18T04:00:27.726Z,27.50
2018-10-18T04:01:03.145Z,27.00
2018-10-18T04:01:38.485Z,28.50
2018-10-18T04:02:14.009Z,26.80
2018-10-18T04:02:49.447Z,25.20
2018-10-18T04:03:24.821Z,26.10
2018-10-18T04:04:00.018Z,26.10
2018-10-18T04:04:35.337Z,27.20
2018-10-18T04:05:10.432Z,25.60
2018-10-18T04:05:45.872Z,24.60
2018-10-18T04:06:21.494Z,24.40
2018-10-18T04:06:56.811Z,25.30
2018-10-18T04:07:32.020Z,25.70
2018-10-18T04:08:07.454Z,25.00
2018-10-18T04:08:42.773Z,24.60
2018-10-18T04:09:18.238Z,24.20
2018-10-18T04:09:53.955Z,23.90
2018-10-18T04:10:29.184Z,24.10
2018-10-18T04:11:04.552Z,24.20
2018-10-18T04:11:39.880Z,24.50
2018-10-18T04:12:15.177Z,24.00
2018-10-18T04:12:50.703Z,25.20
2018-10-18T04:13:26.182Z,26.40
2018-10-18T04:14:01.502Z,24.10
2018-10-18T04:14:36.973Z,24.50
2018-10-18T04:15:12.459Z,24.90
2018-10-18T04:15:48.457Z,24.50
2018-10-18T04:16:23.858Z,24.00
2018-10-18T04:16:59.376Z,24.10
2018-10-18T04:17:34.698Z,23.50
2018-10-18T04:18:10.155Z,24.10
2018-10-18T04:18:45.412Z,24.70
2018-10-18T04:19:20.636Z,25.00
2018-10-18T04:19:55.958Z,25.00
2018-10-18T04:20:30.982Z,22.90
2018-10-18T04:21:06.124Z,23.80
2018-10-18T04:21:41.534Z,24.80
2018-10-18T04:22:16.946Z,25.40
2018-10-18T04:22:52.040Z,25.50
2018-10-18T04:23:27.052Z,24.30
2018-10-18T04:24:02.681Z,25.00
2018-10-18T04:24:38.048Z,25.90
2018-10-18T04:25:13.278Z,24.90
2018-10-18T04:25:48.795Z,23.70
2018-10-18T04:26:24.258Z,23.70
2018-10-18T04:26:59.710Z,23.20
2018-10-18T04:27:35.058Z,24.60
2018-10-18T04:28:10.269Z,24.70
2018-10-18T04:28:45.605Z,24.10
2018-10-18T04:29:20.992Z,23.30
2018-10-18T04:29:56.370Z,22.70
2018-10-18T04:30:31.639Z,23.20
2018-10-18T04:31:06.890Z,24.10
2018-10-18T04:31:42.039Z,23.00
2018-10-18T04:32:17.302Z,22.40
2018-10-18T04:32:52.725Z,22.50
2018-10-18T04:33:28.261Z,22.20
2018-10-18T04:34:03.722Z,23.20
2018-10-18T04:34:39.148Z,23.30
2018-10-18T04:35:14.586Z,22.20
2018-10-18T04:35:49.973Z,23.60
2018-10-18T04:36:25.608Z,23.20
2018-10-18T04:37:01.034Z,23.60
2018-10-18T04:37:36.361Z,23.00
2018-10-18T04:38:11.886Z,22.60
2018-10-18T04:38:47.564Z,24.10
2018-10-18T04:39:22.979Z,22.80
2018-10-18T04:39:58.193Z,23.50
2018-10-18T04:40:33.627Z,23.50
2018-10-18T04:41:08.818Z,23.70
2018-10-18T04:41:44.473Z,23.70
2018-10-18T04:42:19.602Z,23.50
2018-10-18T04:42:55.001Z,22.00
2018-10-18T04:43:30.625Z,21.60
2018-10-18T04:44:06.113Z,22.90
2018-10-18T04:44:41.456Z,23.40
2018-10-18T04:45:16.981Z,21.80
2018-10-18T04:45:52.162Z,22.60
2018-10-18T04:46:27.809Z,23.60
2018-10-18T04:47:03.676Z,22.40
2018-10-18T04:47:38.904Z,21.90
2018-10-18T04:48:14.414Z,23.90
2018-10-18T04:48:49.551Z,23.30
2018-10-18T04:49:24.619Z,22.60
2018-10-18T04:50:00.136Z,22.80
2018-10-18T04:50:35.259Z,22.40
2018-10-18T04:51:10.681Z,21.50
2018-10-18T04:51:45.790Z,21.90
2018-10-18T04:52:21.299Z,23.80
2018-10-18T04:52:56.676Z,23.60
2018-10-18T04:53:32.216Z,22.40
2018-10-18T04:54:07.378Z,22.50
2018-10-18T04:54:42.641Z,22.10
2018-10-18T04:55:18.271Z,22.50
2018-10-18T04:55:53.492Z,22.20
2018-10-18T04:56:29.107Z,22.00
2018-10-18T04:57:04.432Z,23.20
2018-10-18T04:57:39.854Z,22.70
2018-10-18T04:58:15.395Z,23.20
2018-10-18T04:58:50.814Z,23.10
2018-10-18T04:59:26.220Z,22.50
2018-10-18T05:00:01.551Z,22.20
2018-10-18T05:00:38.321Z,24.40
2018-10-18T05:01:13.930Z,23.80
2018-10-18T05:01:49.081Z,23.60
2018-10-18T05:02:24.319Z,22.90
2018-10-18T05:02:59.942Z,22.30
2018-10-18T05:03:35.296Z,23.00
2018-10-18T05:04:10.502Z,22.60
2018-10-18T05:04:45.620Z,22.20
2018-10-18T05:05:20.923Z,23.40
2018-10-18T05:05:56.334Z,24.60
2018-10-18T05:06:31.619Z,24.30
2018-10-18T05:07:07.182Z,23.00
2018-10-18T05:07:42.469Z,22.70
2018-10-18T05:08:17.791Z,23.70
2018-10-18T05:08:53.155Z,23.70
2018-10-18T05:09:28.393Z,23.70
2018-10-18T05:10:03.964Z,24.30
2018-10-18T05:10:39.593Z,22.70
2018-10-18T05:11:14.990Z,22.80
2018-10-18T05:11:50.447Z,21.90
2018-10-18T05:12:25.925Z,22.70
2018-10-18T05:13:01.382Z,22.80
2018-10-18T05:13:36.680Z,22.40
2018-10-18T05:14:12.161Z,24.50
2018-10-18T05:14:47.600Z,23.40
2018-10-18T05:15:23.004Z,22.20
2018-10-18T05:15:58.358Z,21.20
2018-10-18T05:16:33.743Z,21.60
2018-10-18T05:17:09.174Z,21.80
2018-10-18T05:17:45.303Z,22.30
2018-10-18T05:18:20.632Z,22.70
2018-10-18T05:18:55.974Z,20.80
2018-10-18T05:19:31.239Z,21.10
2018-10-18T05:20:06.786Z,21.70
2018-10-18T05:20:42.038Z,20.70
2018-10-18T05:21:17.447Z,21.70
2018-10-18T05:21:52.598Z,22.10
2018-10-18T05:22:28.027Z,20.50
2018-10-18T05:23:03.335Z,20.70
2018-10-18T05:23:39.027Z,20.80
2018-10-18T05:24:14.526Z,20.70
2018-10-18T05:24:49.840Z,20.60
2018-10-18T05:25:25.139Z,20.90
2018-10-18T05:26:00.499Z,20.70
2018-10-18T05:26:36.143Z,20.60
2018-10-18T05:27:11.760Z,19.10
2018-10-18T05:27:47.109Z,19.20
2018-10-18T05:28:22.828Z,19.60
2018-10-18T05:28:58.106Z,18.80
2018-10-18T05:29:33.423Z,18.60
2018-10-18T05:30:08.772Z,20.30
2018-10-18T05:30:43.998Z,22.90
2018-10-18T05:31:19.497Z,20.20
2018-10-18T05:31:54.985Z,18.50
2018-10-18T05:32:30.466Z,18.30
2018-10-18T05:33:06.290Z,20.20
2018-10-18T05:33:41.718Z,20.50
2018-10-18T05:34:17.175Z,19.50
2018-10-18T05:34:52.699Z,20.30
2018-10-18T05:35:28.449Z,19.50
2018-10-18T05:36:03.967Z,19.90
2018-10-18T05:36:39.178Z,20.00
2018-10-18T05:37:14.669Z,19.10
2018-10-18T05:37:50.069Z,20.10
2018-10-18T05:38:25.308Z,19.90
2018-10-18T05:39:00.632Z,20.40
2018-10-18T05:39:35.856Z,19.40
2018-10-18T05:40:11.074Z,20.20
2018-10-18T05:40:46.213Z,19.70
2018-10-18T05:41:21.559Z,19.30
2018-10-18T05:41:56.896Z,20.50
2018-10-18T05:42:32.116Z,19.80
2018-10-18T05:43:07.674Z,20.00
2018-10-18T05:43:42.657Z,19.90
2018-10-18T05:44:18.281Z,19.90
2018-10-18T05:44:53.610Z,20.40
2018-10-18T05:45:29.082Z,20.10
2018-10-18T05:46:04.201Z,18.60
2018-10-18T05:46:39.473Z,20.30
2018-10-18T05:47:15.090Z,21.60
2018-10-18T05:47:50.340Z,20.80
2018-10-18T05:48:25.690Z,21.10
2018-10-18T05:49:00.954Z,20.40
2018-10-18T05:49:36.590Z,19.90
2018-10-18T05:50:11.697Z,20.10
2018-10-18T05:50:47.043Z,19.50
2018-10-18T05:51:22.474Z,20.10
2018-10-18T05:51:57.830Z,19.60
2018-10-18T05:52:33.077Z,20.20
2018-10-18T05:53:08.343Z,19.80
2018-10-18T05:53:43.992Z,18.50
2018-10-18T05:54:19.413Z,19.00
2018-10-18T05:54:54.595Z,18.90
2018-10-18T05:55:30.079Z,18.00
2018-10-18T05:56:05.627Z,19.00
2018-10-18T05:56:41.262Z,19.60
2018-10-18T05:57:16.840Z,20.30
2018-10-18T05:57:52.090Z,21.20
2018-10-18T05:58:27.641Z,20.20
2018-10-18T05:59:02.885Z,19.50
2018-10-18T05:59:38.176Z,19.30
2018-10-18T06:00:13.735Z,19.60
2018-10-18T06:00:49.039Z,19.70
2018-10-18T06:01:24.924Z,18.90
2018-10-18T06:02:00.413Z,19.30
2018-10-18T06:02:35.647Z,19.30
2018-10-18T06:03:11.164Z,19.20
2018-10-18T06:03:46.688Z,19.40
2018-10-18T06:04:21.892Z,18.60
2018-10-18T06:04:57.329Z,20.30
2018-10-18T06:05:32.346Z,20.30
2018-10-18T06:06:07.572Z,20.00
2018-10-18T06:06:42.854Z,19.80
2018-10-18T06:07:18.661Z,20.50
2018-10-18T06:07:54.891Z,21.30
2018-10-18T06:08:30.846Z,20.00
2018-10-18T06:09:05.978Z,18.90
2018-10-18T06:09:41.096Z,19.00
2018-10-18T06:10:16.539Z,18.90
2018-10-18T06:10:51.850Z,20.00
2018-10-18T06:11:27.264Z,20.60
2018-10-18T06:12:02.590Z,19.80
2018-10-18T06:12:37.961Z,20.20
2018-10-18T06:13:13.459Z,19.00
2018-10-18T06:13:48.522Z,19.20
2018-10-18T06:14:23.879Z,18.50
2018-10-18T06:14:59.515Z,18.20
2018-10-18T06:15:34.855Z,19.10
2018-10-18T06:16:09.920Z,18.90
2018-10-18T06:16:45.584Z,17.90
2018-10-18T06:17:20.729Z,18.60
2018-10-18T06:17:56.200Z,19.70
2018-10-18T06:18:31.598Z,19.10
2018-10-18T06:19:07.243Z,19.00
2018-10-18T06:19:42.514Z,19.10
2018-10-18T06:20:17.890Z,19.60
2018-10-18T06:20:53.534Z,19.00
2018-10-18T06:21:29.022Z,17.80
2018-10-18T06:22:04.175Z,17.70
2018-10-18T06:22:39.724Z,17.90
2018-10-18T06:23:15.012Z,18.90
2018-10-18T06:23:50.397Z,19.30
2018-10-18T06:24:26.066Z,20.10
2018-10-18T06:25:01.553Z,18.60
2018-10-18T06:25:37.128Z,18.70
2018-10-18T06:26:12.413Z,19.10
2018-10-18T06:26:47.667Z,19.70
2018-10-18T06:27:22.971Z,20.10
2018-10-18T06:27:58.722Z,20.00
2018-10-18T06:28:34.468Z,19.40
2018-10-18T06:29:09.819Z,19.00
2018-10-18T06:29:45.500Z,19.10
2018-10-18T06:30:20.572Z,19.90
2018-10-18T06:30:55.924Z,20.00
2018-10-18T06:31:31.235Z,18.80
2018-10-18T06:32:06.456Z,19.10
2018-10-18T06:32:41.756Z,19.30
2018-10-18T06:33:17.625Z,18.90
2018-10-18T06:33:52.930Z,19.20
2018-10-18T06:34:28.120Z,19.00
2018-10-18T06:35:03.804Z,19.50
2018-10-18T06:35:38.888Z,20.20
2018-10-18T06:36:14.527Z,20.50
2018-10-18T06:36:50.151Z,19.50
2018-10-18T06:37:25.404Z,19.20
2018-10-18T06:38:00.869Z,19.00
2018-10-18T06:38:36.148Z,20.10
2018-10-18T06:39:11.847Z,20.30
2018-10-18T06:39:47.000Z,20.20
2018-10-18T06:40:22.423Z,21.20
2018-10-18T06:40:57.988Z,22.50
2018-10-18T06:41:33.115Z,20.80
2018-10-18T06:42:08.753Z,20.00
2018-10-18T06:42:43.873Z,19.60
2018-10-18T06:43:19.400Z,19.50
2018-10-18T06:43:54.769Z,18.70
2018-10-18T06:44:30.101Z,20.20
2018-10-18T06:45:05.426Z,21.60
2018-10-18T06:45:40.824Z,20.60
2018-10-18T06:46:16.234Z,20.00
2018-10-18T06:46:51.882Z,20.40
2018-10-18T06:47:27.206Z,20.70
2018-10-18T06:48:02.404Z,20.30
2018-10-18T06:48:37.631Z,19.90
2018-10-18T06:49:13.281Z,19.10
2018-10-18T06:49:48.812Z,20.40
2018-10-18T06:50:24.047Z,21.30
2018-10-18T06:50:59.370Z,19.50
2018-10-18T06:51:35.005Z,19.40
2018-10-18T06:52:10.304Z,20.20
2018-10-18T06:52:45.438Z,19.60
2018-10-18T06:53:20.769Z,18.60
2018-10-18T06:53:56.333Z,19.40
2018-10-18T06:54:31.908Z,19.10
2018-10-18T06:55:07.385Z,18.00
2018-10-18T06:55:42.603Z,19.00
2018-10-18T06:56:17.928Z,20.00
2018-10-18T06:56:53.332Z,20.10
2018-10-18T06:57:28.540Z,19.60
2018-10-18T06:58:03.843Z,19.80
2018-10-18T06:58:39.237Z,18.90
2018-10-18T06:59:14.594Z,18.60
2018-10-18T06:59:49.902Z,19.50
2018-10-18T07:00:25.383Z,18.70
2018-10-18T07:01:00.613Z,17.90
2018-10-18T07:01:36.164Z,18.60
2018-10-18T07:02:11.591Z,18.80
2018-10-18T07:02:47.046Z,19.30
2018-10-18T07:03:22.380Z,18.60
2018-10-18T07:03:58.015Z,17.30
2018-10-18T07:04:33.458Z,16.90
2018-10-18T07:05:09.013Z,18.10
2018-10-18T07:05:44.622Z,18.60
2018-10-18T07:06:19.923Z,17.90
2018-10-18T07:06:55.476Z,19.00
2018-10-18T07:07:30.762Z,17.50
2018-10-18T07:08:06.313Z,17.40
2018-10-18T07:08:41.917Z,17.90
2018-10-18T07:09:17.078Z,18.50
2018-10-18T07:09:52.473Z,18.30
2018-10-18T07:10:27.696Z,18.10
2018-10-18T07:11:03.140Z,19.10
2018-10-18T07:11:38.471Z,19.00
2018-10-18T07:12:14.021Z,18.30
2018-10-18T07:12:49.420Z,18.60
2018-10-18T07:13:24.839Z,19.00
2018-10-18T07:14:00.350Z,17.50
2018-10-18T07:14:35.643Z,16.90
2018-10-18T07:15:11.002Z,16.60
2018-10-18T07:15:46.344Z,17.40
2018-10-18T07:16:21.617Z,18.20
2018-10-18T07:16:56.839Z,17.60
2018-10-18T07:17:32.260Z,17.00
2018-10-18T07:18:07.711Z,18.30
2018-10-18T07:18:42.998Z,18.40
2018-10-18T07:19:18.464Z,18.20
2018-10-18T07:19:53.701Z,18.20
2018-10-18T07:20:29.060Z,17.20
2018-10-18T07:21:04.588Z,17.80
2018-10-18T07:21:39.904Z,17.90
2018-10-18T07:22:15.304Z,17.10
2018-10-18T07:22:50.694Z,18.40
2018-10-18T07:23:26.243Z,16.70
2018-10-18T07:24:01.511Z,16.70
2018-10-18T07:24:36.720Z,16.30
2018-10-18T07:25:12.175Z,16.50
2018-10-18T07:25:47.414Z,17.00
2018-10-18T07:26:22.962Z,17.70
2018-10-18T07:26:58.656Z,16.70
2018-10-18T07:27:33.877Z,16.20
2018-10-18T07:28:09.180Z,16.40
2018-10-18T07:28:44.448Z,16.20
2018-10-18T07:29:19.980Z,17.10
2018-10-18T07:29:55.463Z,17.30
2018-10-18T07:30:30.935Z,16.00
2018-10-18T07:31:06.474Z,16.10
2018-10-18T07:31:41.989Z,16.40
2018-10-18T07:32:17.004Z,16.30
2018-10-18T07:32:52.525Z,15.80
2018-10-18T07:33:28.254Z,15.90
2018-10-18T07:34:03.584Z,15.90
2018-10-18T07:34:38.792Z,15.70
2018-10-18T07:35:14.232Z,15.60
2018-10-18T07:35:49.377Z,16.80